Time;durP1;ratioP1;P1;durP2;ratioP2;P2;SDS_P1;SDS_P2;PMS_P1;PMS_P2;Temp;Humidity;BMP_temperature;BMP_pressure;BME280_temperature;BME280_humidity;BME280_pressure;Samples;Min_cycle;Max_cycle;Signal;HPM_P1;HPM_P2
2022/07/05 00:00:57;;;;;;;1.80;1.58;;;;;;;26.62;37.01;101853.09;5034389;28;20029;-65
2022/07/05 00:03:22;;;;;;;5.18;2.00;;;;;;;26.63;36.98;101861.13;5017664;28;20029;-65
2022/07/05 00:05:48;;;;;;;5.25;1.42;;;;;;;26.67;36.84;101867.06;5017160;28;20033;-66
2022/07/05 00:08:13;;;;;;;3.70;1.70;;;;;;;26.68;37.05;101868.75;5034536;28;20029;-66
2022/07/05 00:10:38;;;;;;;2.72;1.67;;;;;;;26.68;36.87;101862.41;5048058;28;20048;-66
2022/07/05 00:16:26;;;;;;;1.60;1.50;;;;;;;26.66;36.81;101859.88;4679976;28;21976;-65
2022/07/05 00:18:51;;;;;;;2.05;1.73;;;;;;;26.65;36.75;101858.19;5017589;28;20121;-66
2022/07/05 00:21:16;;;;;;;7.72;1.65;;;;;;;26.65;36.59;101838.09;5035153;28;20025;-65
2022/07/05 00:23:42;;;;;;;4.95;1.90;;;;;;;26.64;36.66;101848.22;5017457;28;20037;-66
2022/07/05 00:26:07;;;;;;;4.35;1.83;;;;;;;26.61;36.46;101845.91;5035073;28;20400;-66
2022/07/05 00:28:32;;;;;;;2.47;1.90;;;;;;;26.60;36.37;101849.72;5017330;28;20038;-66
2022/07/05 00:30:58;;;;;;;3.13;1.83;;;;;;;26.56;36.84;101848.44;5034993;28;20544;-66
2022/07/05 00:33:23;;;;;;;4.28;1.75;;;;;;;26.56;36.75;101845.69;5033720;28;20390;-65
2022/07/05 00:35:49;;;;;;;7.45;2.30;;;;;;;26.53;37.49;101844.19;5033562;28;20026;-65
2022/07/05 00:38:14;;;;;;;5.28;3.15;;;;;;;26.52;36.58;101844.44;5033630;28;20021;-65
2022/07/05 00:40:39;;;;;;;3.38;2.00;;;;;;;26.48;36.22;101849.50;5022015;28;20037;-65
2022/07/05 00:43:05;;;;;;;4.70;2.10;;;;;;;26.44;36.84;101844.59;5053335;28;20506;-66
2022/07/05 00:45:30;;;;;;;2.95;1.73;;;;;;;26.38;36.63;101848.19;5054622;28;20035;-65
2022/07/05 00:47:55;;;;;;;7.80;1.67;;;;;;;26.31;36.79;101839.06;5053281;28;20029;-66
2022/07/05 00:50:21;;;;;;;5.50;1.95;;;;;;;26.31;36.79;101855.56;5053317;28;20032;-65
2022/07/05 00:52:46;;;;;;;2.10;1.70;;;;;;;26.26;36.88;101852.59;5054513;28;20025;-66
2022/07/05 00:55:12;;;;;;;2.80;1.67;;;;;;;26.22;36.86;101852.16;5036617;28;20063;-65
2022/07/05 00:57:37;;;;;;;2.63;2.22;;;;;;;26.20;36.99;101847.94;5020273;28;20028;-66
2022/07/05 01:00:04;;;;;;;2.30;1.70;;;;;;;26.14;37.14;101854.25;5053213;28;20036;-65
2022/07/05 01:02:30;;;;;;;4.50;2.08;;;;;;;26.12;37.00;101856.31;5036401;28;20020;-65
2022/07/05 01:04:55;;;;;;;5.07;1.80;;;;;;;26.07;37.32;101854.22;5052948;28;20486;-66
2022/07/05 01:07:23;;;;;;;3.63;2.20;;;;;;;26.03;37.47;101853.75;5036330;28;20025;-66
2022/07/05 01:09:48;;;;;;;7.70;2.10;;;;;;;26.00;36.92;101842.34;5033102;28;20151;-66
2022/07/05 01:12:15;;;;;;;3.38;1.88;;;;;;;26.00;37.48;101847.81;5033129;28;20037;-66
2022/07/05 01:14:41;;;;;;;5.22;1.90;;;;;;;25.98;37.49;101845.28;5049479;28;20064;-66
2022/07/05 01:17:07;;;;;;;2.75;2.30;;;;;;;26.00;37.59;101847.81;5032699;28;20049;-66
2022/07/05 01:19:32;;;;;;;3.70;2.00;;;;;;;25.99;37.37;101844.22;5032813;28;20459;-66
2022/07/05 01:22:03;;;;;;;2.70;1.90;;;;;;;25.96;37.53;101841.88;5032856;28;20025;-66
2022/07/05 01:24:28;;;;;;;2.25;1.85;;;;;;;25.93;37.62;101850.56;5016500;28;20060;-66
2022/07/05 01:26:54;;;;;;;7.32;2.20;;;;;;;25.85;37.52;101834.25;5015804;28;20060;-66
2022/07/05 01:29:19;;;;;;;7.95;2.20;;;;;;;25.87;37.93;101847.78;5032719;28;20029;-66
2022/07/05 01:31:45;;;;;;;3.13;1.67;;;;;;;25.82;37.45;101845.66;5032550;28;20144;-66
2022/07/05 01:34:11;;;;;;;4.70;2.22;;;;;;;25.79;37.47;101850.69;5032634;28;20033;-65
2022/07/05 01:36:36;;;;;;;3.20;1.85;;;;;;;25.77;37.90;101853.63;5015930;28;20155;-65
2022/07/05 01:39:06;;;;;;;2.60;1.73;;;;;;;25.71;38.26;101851.69;5032500;28;20033;-66
2022/07/05 01:41:32;;;;;;;3.88;1.67;;;;;;;25.67;38.08;101844.09;5016223;28;20071;-65
2022/07/05 01:43:58;;;;;;;3.20;1.90;;;;;;;25.63;38.37;101851.88;5049106;28;20029;-65
2022/07/05 01:46:24;;;;;;;2.33;1.90;;;;;;;25.58;37.82;101854.38;5015795;28;20025;-65
2022/07/05 01:48:51;;;;;;;2.45;2.20;;;;;;;25.52;38.31;101849.69;5032265;28;20368;-66
2022/07/05 01:51:25;;;;;;;3.28;2.00;;;;;;;25.47;38.66;101846.72;5032354;28;20025;-65
2022/07/05 01:53:52;;;;;;;4.30;2.08;;;;;;;25.37;38.27;101846.22;5016046;28;20028;-66
2022/07/05 01:56:18;;;;;;;4.40;2.08;;;;;;;25.31;38.40;101844.25;5032162;28;20017;-66
2022/07/05 01:58:44;;;;;;;4.00;1.80;;;;;;;25.24;39.03;101846.09;5032112;28;20387;-65
2022/07/05 02:01:09;;;;;;;1.67;1.58;;;;;;;25.15;38.63;101842.69;5048890;28;20410;-65
2022/07/05 02:03:36;;;;;;;2.50;2.17;;;;;;;25.08;39.02;101839.03;5033321;28;20028;-65
2022/07/05 02:06:01;;;;;;;5.57;2.10;;;;;;;25.01;38.77;101846.38;5033348;28;20598;-64
2022/07/05 02:08:30;;;;;;;7.07;2.00;;;;;;;24.96;38.68;101848.03;5015755;28;20113;-65
2022/07/05 02:10:55;;;;;;;6.55;1.88;;;;;;;24.86;38.76;101846.47;5032101;28;20044;-64
2022/07/05 02:13:21;;;;;;;1.75;1.50;;;;;;;24.79;39.11;101845.53;5032210;28;20033;-65
2022/07/05 02:15:47;;;;;;;4.75;2.00;;;;;;;24.72;39.03;101841.88;4999079;28;20390;-65
2022/07/05 02:18:12;;;;;;;1.73;1.58;;;;;;;24.66;39.63;101844.53;5015370;28;20049;-65
2022/07/05 02:20:39;;;;;;;3.20;1.55;;;;;;;24.59;39.76;101852.72;5031900;28;20025;-64
2022/07/05 02:23:04;;;;;;;3.08;1.33;;;;;;;24.53;38.99;101847.16;5032038;28;20483;-64
2022/07/05 02:25:29;;;;;;;1.65;1.48;;;;;;;24.43;39.34;101847.47;5031900;28;20037;-64
2022/07/05 02:27:55;;;;;;;3.00;2.08;;;;;;;24.40;39.28;101856.06;5032052;28;20406;-65
2022/07/05 02:30:21;;;;;;;5.35;1.75;;;;;;;24.34;40.13;101851.41;5033197;28;20116;-64
2022/07/05 02:32:47;;;;;;;2.05;1.85;;;;;;;24.27;40.16;101856.78;5048550;28;20437;-65
2022/07/05 02:35:12;;;;;;;2.60;1.77;;;;;;;24.26;39.35;101851.53;5031934;28;20037;-65
2022/07/05 02:37:41;;;;;;;3.05;1.80;;;;;;;24.18;39.85;101848.88;5015894;28;20475;-64
2022/07/05 02:40:08;;;;;;;2.15;1.92;;;;;;;24.11;40.08;101856.16;5019774;28;20036;-64
2022/07/05 02:42:34;;;;;;;13.10;3.00;;;;;;;24.07;39.87;101857.56;5003123;28;20026;-65
2022/07/05 02:44:59;;;;;;;1.95;1.58;;;;;;;23.99;39.88;101852.19;5035930;28;20025;-64
2022/07/05 02:47:25;;;;;;;2.72;1.80;;;;;;;23.93;40.10;101850.22;5019213;28;20031;-64
2022/07/05 02:49:51;;;;;;;3.67;1.92;;;;;;;23.89;40.69;101857.13;5035981;28;20025;-64
2022/07/05 02:52:17;;;;;;;4.82;2.70;;;;;;;23.82;39.95;101847.97;5019468;28;20056;-64
2022/07/05 02:54:42;;;;;;;3.33;2.53;;;;;;;23.79;40.45;101854.66;5052270;28;20433;-65
2022/07/05 02:57:07;;;;;;;4.00;2.13;;;;;;;23.75;40.14;101854.22;5035689;28;20382;-64
2022/07/05 02:59:33;;;;;;;2.63;2.42;;;;;;;23.73;40.25;101860.91;5036834;28;20063;-64
2022/07/05 03:01:58;;;;;;;5.32;2.08;;;;;;;23.68;39.91;101863.38;5035447;28;20033;-64
2022/07/05 03:04:23;;;;;;;5.13;1.80;;;;;;;23.64;40.96;101865.66;5035301;28;20039;-64
2022/07/05 03:06:49;;;;;;;4.30;2.60;;;;;;;23.61;40.41;101868.78;5002587;28;20026;-64
2022/07/05 03:09:14;;;;;;;3.90;2.60;;;;;;;23.56;40.27;101865.72;5036588;28;20108;-64
2022/07/05 03:11:40;;;;;;;7.35;2.42;;;;;;;23.52;41.21;101861.69;5035421;28;20037;-65
2022/07/05 03:14:05;;;;;;;6.53;2.80;;;;;;;23.48;40.25;101862.25;5036557;28;20056;-64
2022/07/05 03:16:30;;;;;;;3.95;2.65;;;;;;;23.45;41.00;101857.16;5036175;28;20064;-65
2022/07/05 03:18:56;;;;;;;6.32;2.42;;;;;;;23.43;40.35;101854.59;5035299;28;20048;-65
2022/07/05 03:21:21;;;;;;;4.47;2.42;;;;;;;23.39;40.85;101845.09;5035071;28;20064;-65
2022/07/05 03:23:47;;;;;;;5.22;2.40;;;;;;;23.38;41.09;101857.06;5036348;28;20025;-64
2022/07/05 03:26:12;;;;;;;4.28;2.67;;;;;;;23.34;41.38;101850.22;5018586;28;20056;-64
2022/07/05 03:28:38;;;;;;;6.25;2.53;;;;;;;23.32;41.25;101857.75;5035026;28;20033;-64
2022/07/05 03:31:03;;;;;;;3.22;2.40;;;;;;;23.26;41.76;101863.97;5036241;28;20030;-65
2022/07/05 03:33:28;;;;;;;3.20;2.40;;;;;;;23.23;41.29;101858.88;5035062;28;20053;-64
2022/07/05 03:35:54;;;;;;;6.55;2.75;;;;;;;23.22;41.22;101868.13;5034872;28;20445;-64
2022/07/05 03:38:19;;;;;;;5.07;2.85;;;;;;;23.19;41.70;101873.97;5035981;28;20040;-65
2022/07/05 03:40:44;;;;;;;3.88;2.63;;;;;;;23.15;41.68;101872.63;5034687;28;20525;-64
2022/07/05 03:43:10;;;;;;;3.75;2.95;;;;;;;23.08;42.01;101861.63;5018177;28;20128;-63
2022/07/05 03:45:35;;;;;;;4.32;2.95;;;;;;;23.06;41.04;101863.66;5051202;28;20445;-65
2022/07/05 03:48:01;;;;;;;2.80;2.50;;;;;;;23.08;41.60;101869.81;5035771;28;20026;-64
2022/07/05 03:50:27;;;;;;;5.90;2.58;;;;;;;23.06;41.42;101874.59;5034152;28;20390;-64
2022/07/05 03:52:53;;;;;;;3.70;2.70;;;;;;;23.05;42.06;101872.06;5034615;28;20033;-64
2022/07/05 03:55:18;;;;;;;5.63;2.55;;;;;;;23.01;41.64;101862.50;5034470;28;20525;-64
2022/07/05 03:57:44;;;;;;;3.55;2.47;;;;;;;23.01;42.09;101876.19;5035573;28;20610;-64
2022/07/05 04:00:10;;;;;;;3.92;2.60;;;;;;;22.99;41.29;101881.00;5035601;28;20037;-64
2022/07/05 04:02:35;;;;;;;3.28;2.50;;;;;;;22.97;41.96;101874.88;5034318;28;20458;-64
2022/07/05 04:05:00;;;;;;;5.05;2.58;;;;;;;23.01;41.30;101881.66;5035544;28;20074;-64
2022/07/05 04:07:26;;;;;;;3.97;2.47;;;;;;;23.03;42.01;101885.06;5034229;28;20514;-64
2022/07/05 04:09:52;;;;;;;11.45;2.70;;;;;;;23.03;41.41;101874.13;5034634;28;20059;-64
2022/07/05 04:12:18;;;;;;;2.67;1.98;;;;;;;23.09;41.32;101884.31;5017812;28;20037;-64
2022/07/05 04:14:43;;;;;;;4.85;2.80;;;;;;;23.14;41.39;101887.34;5034173;28;20037;-64
2022/07/05 04:17:08;;;;;;;3.35;2.30;;;;;;;23.22;41.34;101891.88;5001027;28;20419;-64
2022/07/05 04:19:34;;;;;;;12.98;2.88;;;;;;;23.30;41.61;101895.41;5035265;28;20406;-65
2022/07/05 04:21:59;;;;;;;3.03;2.70;;;;;;;23.36;42.29;101886.44;5034188;28;20029;-65
2022/07/05 04:24:25;;;;;;;5.15;2.42;;;;;;;23.46;41.92;101889.78;5034018;28;20503;-64
2022/07/05 04:26:50;;;;;;;4.55;3.00;;;;;;;23.58;41.76;101899.22;5017658;28;20028;-64
2022/07/05 04:29:16;;;;;;;6.53;2.67;;;;;;;23.66;42.37;101899.13;5033945;28;20030;-64
2022/07/05 04:31:41;;;;;;;5.50;3.22;;;;;;;23.75;41.57;101900.75;5033834;28;20182;-64
2022/07/05 04:34:06;;;;;;;3.67;2.85;;;;;;;23.84;42.29;101901.50;5017293;28;20026;-65
2022/07/05 04:36:32;;;;;;;4.60;2.83;;;;;;;23.95;41.35;101905.66;5050323;28;20217;-64
2022/07/05 04:38:57;;;;;;;3.72;2.40;;;;;;;24.03;42.20;101911.00;5033706;28;20040;-64
2022/07/05 04:41:22;;;;;;;4.00;2.75;;;;;;;24.14;42.09;101913.28;5017099;28;20032;-65
2022/07/05 04:43:48;;;;;;;3.50;2.47;;;;;;;24.23;41.84;101909.41;5033695;28;20033;-65
2022/07/05 04:46:13;;;;;;;5.80;3.15;;;;;;;24.36;41.75;101905.97;5050229;28;20029;-64
2022/07/05 04:48:39;;;;;;;6.13;3.08;;;;;;;24.46;41.17;101903.75;5017043;28;20030;-64
2022/07/05 04:51:04;;;;;;;5.18;2.75;;;;;;;24.58;41.40;101905.81;5016909;28;20390;-65
2022/07/05 04:53:29;;;;;;;8.73;3.40;;;;;;;24.70;41.02;101907.00;5033525;28;20091;-65
2022/07/05 04:55:55;;;;;;;9.80;3.25;;;;;;;24.84;40.88;101918.97;5000549;28;20060;-65
2022/07/05 04:58:20;;;;;;;5.47;2.63;;;;;;;24.95;40.42;101923.06;5033265;28;20446;-65
2022/07/05 05:00:46;;;;;;;6.25;3.10;;;;;;;25.05;40.46;101916.22;5032543;28;20021;-65
2022/07/05 05:03:11;;;;;;;7.28;3.38;;;;;;;25.20;40.45;101916.13;5016967;28;20033;-65
2022/07/05 05:05:36;;;;;;;7.45;3.67;;;;;;;25.32;40.57;101920.03;5033073;28;20467;-65
2022/07/05 05:08:02;;;;;;;4.18;2.80;;;;;;;25.42;40.46;101915.91;5033167;28;20068;-65
2022/07/05 05:10:27;;;;;;;4.93;3.05;;;;;;;25.56;40.28;101916.00;5033063;28;20116;-65
2022/07/05 05:12:52;;;;;;;4.95;2.95;;;;;;;25.65;40.11;101915.66;5034304;28;20056;-65
2022/07/05 05:15:18;;;;;;;10.65;3.30;;;;;;;25.77;39.71;101918.66;5033100;28;20414;-65
2022/07/05 05:17:44;;;;;;;4.22;2.85;;;;;;;25.88;39.91;101920.88;5032653;28;20050;-65
2022/07/05 05:20:14;;;;;;;8.18;3.00;;;;;;;25.99;39.34;101918.38;5032991;28;20048;-65
2022/07/05 05:22:40;;;;;;;11.52;4.97;;;;;;;26.11;39.71;101909.56;5032884;28;20028;-65
2022/07/05 05:25:06;;;;;;;5.32;2.33;;;;;;;26.24;39.48;101907.78;5016353;28;20395;-65
2022/07/05 05:27:31;;;;;;;5.05;2.90;;;;;;;26.35;39.11;101920.06;5033971;28;20033;-65
2022/07/05 05:29:58;;;;;;;4.13;2.42;;;;;;;26.48;39.03;101911.84;5016300;28;20031;-66
2022/07/05 05:32:23;;;;;;;6.68;3.10;;;;;;;26.59;38.79;101914.84;5032557;28;20056;-66
2022/07/05 05:34:48;;;;;;;5.72;2.83;;;;;;;26.70;39.14;101915.28;5016155;28;20057;-66
2022/07/05 05:37:14;;;;;;;6.18;3.45;;;;;;;26.82;38.73;101914.50;5015998;28;20029;-66
2022/07/05 05:39:42;;;;;;;3.78;2.55;;;;;;;26.96;38.82;101927.22;5032613;28;20100;-66
2022/07/05 05:42:08;;;;;;;3.72;2.67;;;;;;;27.10;38.47;101928.94;5032567;28;20029;-65
2022/07/05 05:44:33;;;;;;;7.13;3.25;;;;;;;27.21;38.05;101918.34;5032482;28;20029;-66
2022/07/05 05:46:59;;;;;;;8.00;3.40;;;;;;;27.34;38.47;101923.81;5015885;28;20488;-65
2022/07/05 05:49:24;;;;;;;6.68;2.95;;;;;;;27.52;37.98;101926.81;5032303;28;20075;-65
2022/07/05 05:51:49;;;;;;;4.47;3.30;;;;;;;27.64;37.22;101925.09;5033485;28;20449;-65
2022/07/05 05:54:15;;;;;;;4.57;3.35;;;;;;;27.79;37.40;101928.47;5033405;28;20070;-65
2022/07/05 05:56:40;;;;;;;4.53;2.90;;;;;;;27.94;36.99;101926.31;5015694;28;20402;-65
2022/07/05 05:59:05;;;;;;;4.40;2.85;;;;;;;28.12;36.87;101937.50;5015765;28;20033;-66
2022/07/05 06:01:31;;;;;;;8.25;2.88;;;;;;;28.29;36.59;101935.97;5033430;28;20069;-65
2022/07/05 06:03:56;;;;;;;6.03;3.90;;;;;;;28.46;36.21;101940.97;5032105;28;20435;-66
2022/07/05 06:06:22;;;;;;;4.15;2.97;;;;;;;28.60;36.63;101945.34;5032494;28;20029;-65
2022/07/05 06:08:47;;;;;;;3.70;2.90;;;;;;;28.73;36.71;101939.78;5033199;28;20471;-65
2022/07/05 06:11:13;;;;;;;6.40;3.63;;;;;;;28.86;35.96;101951.59;5031925;28;20033;-66
2022/07/05 06:13:39;;;;;;;7.68;3.50;;;;;;;29.01;36.39;101956.78;5031972;28;20538;-64
2022/07/05 06:16:06;;;;;;;6.05;3.13;;;;;;;29.15;36.31;101952.00;5032016;28;20060;-67
2022/07/05 06:18:31;;;;;;;5.13;2.75;;;;;;;29.27;34.98;101956.63;5015260;28;20056;-66
2022/07/05 06:20:57;;;;;;;8.20;4.13;;;;;;;29.39;35.38;101946.53;4999042;28;20037;-65
2022/07/05 06:23:22;;;;;;;5.80;3.03;;;;;;;29.49;34.82;101954.31;4999136;28;20033;-66
2022/07/05 06:25:48;;;;;;;7.32;3.35;;;;;;;29.62;34.67;101947.81;5015544;28;20025;-65
2022/07/05 06:28:13;;;;;;;8.43;3.95;;;;;;;29.76;34.39;101957.69;5031994;28;20526;-66
2022/07/05 06:30:39;;;;;;;5.40;2.78;;;;;;;29.92;34.63;101951.56;5033030;28;20033;-65
2022/07/05 06:33:04;;;;;;;4.38;3.30;;;;;;;30.05;34.60;101948.66;5031923;28;20104;-65
2022/07/05 06:35:30;;;;;;;3.42;3.13;;;;;;;30.15;34.45;101951.72;5015404;28;20063;-65
2022/07/05 06:38:00;;;;;;;5.40;2.97;;;;;;;30.24;33.73;101955.84;5015560;28;20032;-65
2022/07/05 06:40:28;;;;;;;12.38;3.92;;;;;;;30.25;33.85;101943.75;5031733;28;20028;-65
2022/07/05 06:42:55;;;;;;;5.75;3.20;;;;;;;30.28;33.61;101954.34;5031851;28;20026;-65
2022/07/05 06:45:21;;;;;;;5.20;3.00;;;;;;;30.30;34.33;101949.41;5032971;28;20052;-65
2022/07/05 06:47:57;;;;;;;3.80;3.15;;;;;;;30.48;33.65;101946.66;5015178;28;20046;-66
2022/07/05 06:50:23;;;;;;;4.97;2.78;;;;;;;30.71;33.17;101947.84;5015147;28;20052;-66
2022/07/05 06:52:48;;;;;;;5.57;3.17;;;;;;;30.90;33.00;101947.56;5015189;28;20076;-65
2022/07/05 06:55:13;;;;;;;6.53;2.63;;;;;;;31.04;32.99;101962.06;5031770;28;20443;-65
2022/07/05 06:57:39;;;;;;;4.68;2.60;;;;;;;31.03;33.10;101961.22;5031515;28;20040;-65
2022/07/05 07:00:05;;;;;;;4.43;2.53;;;;;;;31.14;32.86;101965.09;5015195;28;20040;-66
2022/07/05 07:02:31;;;;;;;4.47;2.70;;;;;;;31.40;32.62;101961.03;5031574;28;20056;-66
2022/07/05 07:04:56;;;;;;;3.25;2.60;;;;;;;31.51;31.88;101961.09;5031783;28;20060;-65
2022/07/05 07:10:06;;;;;;;8.32;2.67;;;;;;;31.39;32.23;101967.66;5045774;28;20033;-65
2022/07/05 07:12:31;;;;;;;4.70;2.65;;;;;;;31.42;32.33;101965.25;5032608;28;20479;-66
2022/07/05 07:14:57;;;;;;;14.32;3.13;;;;;;;31.49;32.50;101960.47;5031419;28;20037;-66
2022/07/05 07:17:23;;;;;;;6.90;3.03;;;;;;;31.46;32.19;101963.72;5014664;28;20487;-66
2022/07/05 07:19:49;;;;;;;4.50;2.55;;;;;;;31.56;32.05;101958.44;5048017;28;20051;-66
2022/07/05 07:22:14;;;;;;;4.80;2.40;;;;;;;31.85;31.29;101961.31;5031434;28;20061;-66
2022/07/05 07:24:40;;;;;;;3.05;2.40;;;;;;;32.07;31.05;101973.50;5033241;28;20048;-66
2022/07/05 07:27:07;;;;;;;4.05;1.77;;;;;;;32.29;30.98;101977.31;5034944;28;20026;-66
2022/07/05 07:29:35;;;;;;;2.63;1.73;;;;;;;32.51;30.19;101972.78;5034982;28;20029;-66
2022/07/05 07:32:02;;;;;;;2.22;1.42;;;;;;;32.70;29.73;101971.53;5034877;28;20105;-64
2022/07/05 07:34:28;;;;;;;2.53;1.23;;;;;;;32.92;29.79;101974.44;5036352;28;20065;-65
2022/07/05 07:36:55;;;;;;;1.15;1.08;;;;;;;33.10;29.42;101973.41;5018411;28;20088;-65
2022/07/05 07:39:20;;;;;;;7.85;1.50;;;;;;;33.30;29.15;101976.56;5002080;28;20052;-65
2022/07/05 07:41:46;;;;;;;3.13;1.42;;;;;;;33.48;29.94;101984.63;5034708;28;20042;-65
2022/07/05 07:44:11;;;;;;;3.35;1.35;;;;;;;33.62;29.66;101986.00;5035990;28;20030;-65
2022/07/05 07:46:39;;;;;;;4.13;1.33;;;;;;;33.76;29.49;101987.34;5018297;28;20495;-65
2022/07/05 07:49:05;;;;;;;4.07;2.00;;;;;;;33.91;28.80;101978.38;5034698;28;20041;-65
2022/07/05 07:51:30;;;;;;;2.25;1.55;;;;;;;34.07;29.19;101982.22;5034616;28;20521;-65
2022/07/05 07:53:56;;;;;;;4.30;2.17;;;;;;;34.14;28.60;101982.91;5034580;28;20056;-66
2022/07/05 07:56:21;;;;;;;1.17;1.10;;;;;;;34.23;28.99;101993.31;5017997;28;20029;-65
2022/07/05 07:58:47;;;;;;;3.95;1.30;;;;;;;34.34;27.41;101983.19;5034436;28;20159;-65
2022/07/05 08:01:13;;;;;;;4.05;1.50;;;;;;;34.35;28.44;101985.72;5017976;28;20128;-65
2022/07/05 08:03:42;;;;;;;7.25;1.90;;;;;;;34.38;27.45;101984.34;5018027;28;20534;-65
2022/07/05 08:06:08;;;;;;;3.45;1.60;;;;;;;34.13;28.13;101978.44;5034435;28;20032;-65
2022/07/05 08:08:34;;;;;;;4.63;1.60;;;;;;;34.25;27.51;101988.38;5050803;28;20029;-65
2022/07/05 08:11:00;;;;;;;4.03;1.55;;;;;;;34.37;28.09;101985.44;5035553;28;20060;-65
2022/07/05 08:13:25;;;;;;;2.45;1.23;;;;;;;34.43;27.49;101987.19;5034149;28;20489;-65
2022/07/05 08:15:51;;;;;;;1.45;0.88;;;;;;;34.67;27.20;101977.50;5050812;28;20450;-66
2022/07/05 08:23:44;;;;;;;2.15;0.75;;;;;;;35.33;26.67;101979.03;5020233;28;20035;-65
2022/07/05 08:26:10;;;;;;;0.65;0.65;;;;;;;35.59;27.24;101974.53;5035315;28;20441;-65
2022/07/05 08:28:35;;;;;;;2.60;1.20;;;;;;;35.69;26.58;101974.59;5035153;28;20056;-65
2022/07/05 08:31:00;;;;;;;3.38;0.93;;;;;;;35.65;26.75;101967.88;5033779;28;20029;-66
2022/07/05 08:33:26;;;;;;;2.25;0.80;;;;;;;35.86;26.22;101968.84;5033914;28;20034;-66
2022/07/05 08:35:51;;;;;;;2.58;0.60;;;;;;;35.96;25.90;101966.94;5035124;28;20032;-66
2022/07/05 08:38:16;;;;;;;6.05;0.80;;;;;;;36.00;25.36;101958.88;5017164;28;20048;-66
2022/07/05 08:40:49;;;;;;;1.67;1.02;;;;;;;36.20;25.66;101968.22;5000984;28;20061;-66
2022/07/05 08:43:15;;;;;;;2.88;0.60;;;;;;;36.06;25.30;101957.81;5033714;28;20021;-66
2022/07/05 08:45:42;;;;;;;3.50;0.52;;;;;;;36.37;24.78;101969.97;5033721;28;20537;-65
2022/07/05 08:48:08;;;;;;;0.73;0.43;;;;;;;35.93;25.56;101964.69;5016998;28;20486;-65
2022/07/05 08:50:35;;;;;;;3.28;0.65;;;;;;;36.01;25.44;101968.94;5033459;28;20064;-66
2022/07/05 08:53:01;;;;;;;4.22;0.57;;;;;;;35.84;24.99;101971.91;5033454;28;20066;-66
2022/07/05 08:55:26;;;;;;;2.40;0.50;;;;;;;35.83;24.92;101974.94;5033342;28;20064;-66
2022/07/05 08:57:51;;;;;;;2.13;0.40;;;;;;;35.95;24.21;101973.66;5033185;28;20083;-66
2022/07/05 09:00:17;;;;;;;2.00;0.45;;;;;;;36.22;24.54;101966.00;5016819;28;20391;-66
2022/07/05 09:02:42;;;;;;;3.08;0.70;;;;;;;36.47;24.23;101970.00;5033149;28;20025;-67
2022/07/05 09:05:12;;;;;;;0.77;0.77;;;;;;;36.67;23.78;101970.09;5033241;28;20029;-67
2022/07/05 09:07:38;;;;;;;3.22;0.70;;;;;;;36.91;24.42;101974.06;5033050;28;20017;-67
2022/07/05 09:10:04;;;;;;;0.93;0.70;;;;;;;37.16;24.16;101974.09;5033133;28;20049;-66
2022/07/05 09:12:30;;;;;;;1.30;0.60;;;;;;;36.68;24.32;101977.38;5049912;28;20545;-66
2022/07/05 09:14:56;;;;;;;1.65;0.63;;;;;;;36.75;24.35;101972.34;5033016;28;20036;-66
2022/07/05 09:17:22;;;;;;;3.55;1.02;;;;;;;37.03;23.74;101974.66;5032771;28;20045;-66
2022/07/05 09:20:05;;;;;;;0.70;0.70;;;;;;;37.13;23.52;101980.25;5000144;28;20503;-67
2022/07/05 09:22:44;;;;;;;1.05;0.70;;;;;;;36.41;23.86;101973.88;5032935;28;20036;-66
2022/07/05 09:25:14;;;;;;;3.15;0.68;;;;;;;35.99;24.38;101963.59;5032860;28;20030;-66
2022/07/05 09:27:49;;;;;;;1.15;0.93;;;;;;;35.64;24.29;101977.34;5032858;28;20025;-67
2022/07/05 09:30:41;;;;;;;0.45;0.40;;;;;;;35.29;24.18;101974.25;5032729;28;20029;-67
2022/07/05 09:33:15;;;;;;;3.63;0.75;;;;;;;35.78;24.52;101972.13;5049213;28;20110;-66
2022/07/05 09:35:57;;;;;;;3.03;0.50;;;;;;;36.15;24.19;101964.56;5032733;28;20057;-66
2022/07/05 09:38:23;;;;;;;0.73;0.68;;;;;;;36.49;23.94;101973.38;5032748;28;20060;-65
2022/07/05 09:40:51;;;;;;;1.85;0.88;;;;;;;36.88;23.71;101966.22;5032688;28;20503;-65
2022/07/05 09:43:24;;;;;;;2.10;0.70;;;;;;;37.26;24.10;101967.69;5032638;28;20087;-65
2022/07/05 09:46:03;;;;;;;2.85;0.75;;;;;;;36.80;23.61;101968.75;5016022;28;20051;-66
2022/07/05 09:48:30;;;;;;;1.65;1.00;;;;;;;36.59;24.40;101967.84;5048921;28;20499;-66
2022/07/05 09:51:10;;;;;;;1.55;0.40;;;;;;;36.92;23.74;101967.34;5032596;28;20390;-65
2022/07/05 09:53:51;;;;;;;2.00;0.40;;;;;;;37.48;22.93;101961.84;5049015;28;20026;-67
2022/07/05 09:56:17;;;;;;;3.55;0.52;;;;;;;37.36;23.15;101967.69;5015716;28;20021;-67
2022/07/05 09:58:43;;;;;;;1.35;0.65;;;;;;;37.28;22.66;101966.28;5015831;28;20136;-66
2022/07/05 10:01:29;;;;;;;1.20;0.57;;;;;;;36.87;23.32;101958.97;5015824;28;20029;-67
2022/07/05 10:03:58;;;;;;;1.48;0.80;;;;;;;36.75;23.17;101961.16;5032204;28;20110;-67
2022/07/05 10:06:25;;;;;;;3.63;0.52;;;;;;;37.46;22.97;101961.28;5031954;28;20039;-66
2022/07/05 10:08:52;;;;;;;3.90;0.70;;;;;;;37.79;23.01;101957.88;5015622;28;20018;-66
2022/07/05 10:11:18;;;;;;;3.35;2.55;;;;;;;37.48;23.12;101965.47;5032195;28;20033;-67
2022/07/05 10:13:49;;;;;;;12.45;11.93;;;;;;;38.05;22.35;101964.28;5032100;28;20033;-66
2022/07/05 10:16:19;;;;;;;1.65;1.55;;;;;;;38.97;21.71;101963.56;5033115;28;20022;-65
2022/07/05 10:18:51;;;;;;;5.32;0.80;;;;;;;38.76;22.13;101960.06;5015337;28;20415;-66
2022/07/05 10:21:18;;;;;;;1.00;0.45;;;;;;;38.28;21.96;101970.06;5032029;28;20028;-67
2022/07/05 10:23:45;;;;;;;1.33;1.00;;;;;;;38.77;22.53;101961.75;5032066;28;20033;-65
2022/07/05 10:26:15;;;;;;;1.02;0.65;;;;;;;39.06;21.18;101963.78;5031926;28;20032;-66
2022/07/05 10:28:42;;;;;;;1.42;0.90;;;;;;;39.41;20.95;101950.31;5033190;28;20053;-65
2022/07/05 10:31:10;;;;;;;3.15;1.20;;;;;;;39.62;21.24;101961.38;5015682;28;20395;-66
2022/07/05 10:33:36;;;;;;;1.83;1.10;;;;;;;39.97;20.52;101961.00;5031978;28;20103;-66
2022/07/05 10:36:03;;;;;;;1.95;0.95;;;;;;;39.85;21.35;101954.94;5015291;28;20498;-68
2022/07/05 10:38:28;;;;;;;5.10;0.80;;;;;;;39.84;21.50;101964.53;5031980;28;20021;-66
2022/07/05 10:40:57;;;;;;;3.38;0.80;;;;;;;39.16;21.47;101964.53;5031899;28;20117;-66
2022/07/05 10:43:23;;;;;;;2.17;0.70;;;;;;;38.57;22.05;101961.84;5031965;28;20056;-66
2022/07/05 10:45:50;;;;;;;0.80;0.57;;;;;;;38.04;21.66;101976.59;5015594;28;20025;-67
2022/07/05 10:48:26;;;;;;;1.45;0.80;;;;;;;37.59;22.29;101969.09;5031841;28;20037;-67
2022/07/05 10:50:52;;;;;;;2.75;0.70;;;;;;;37.42;22.52;101968.53;5015243;28;20125;-68
2022/07/05 10:53:18;;;;;;;1.15;0.55;;;;;;;37.17;22.46;101973.00;5031751;28;20053;-67
2022/07/05 10:55:54;;;;;;;1.35;1.10;;;;;;;36.99;22.55;101976.34;5032983;28;20367;-66
2022/07/05 10:58:20;;;;;;;2.08;0.60;;;;;;;36.53;22.78;101977.31;5032895;28;20429;-66
2022/07/05 11:00:46;;;;;;;0.65;0.63;;;;;;;36.16;22.89;101975.44;5036700;28;20364;-66
2022/07/05 11:03:48;;;;;;;1.15;0.57;;;;;;;35.88;23.01;101980.56;5018991;28;20029;-66
2022/07/05 11:06:43;;;;;;;1.25;0.60;;;;;;;35.86;22.47;101982.78;5024808;28;20044;-66
2022/07/05 11:09:12;;;;;;;0.90;0.57;;;;;;;35.52;23.86;101982.22;5031299;28;20057;-65
2022/07/05 11:11:42;;;;;;;1.38;0.70;;;;;;;35.31;23.54;101977.59;5036770;28;20034;-66
2022/07/05 11:14:20;;;;;;;1.55;0.93;;;;;;;35.15;23.57;101978.59;5035274;28;20105;-66
2022/07/05 11:16:46;;;;;;;3.35;0.95;;;;;;;35.25;23.87;101973.09;5036315;28;20021;-66
2022/07/05 11:19:20;;;;;;;2.70;1.17;;;;;;;36.31;23.27;101976.63;5018724;28;20052;-66
2022/07/05 11:22:03;;;;;;;1.35;1.00;;;;;;;36.21;23.79;101978.25;5035217;28;20033;-66
2022/07/05 11:24:33;;;;;;;3.97;0.77;;;;;;;36.14;23.61;101971.25;5035162;28;20033;-66
2022/07/05 11:27:00;;;;;;;1.05;0.68;;;;;;;36.23;23.68;101975.22;5018505;28;20017;-66
2022/07/05 11:29:46;;;;;;;3.08;0.93;;;;;;;36.42;23.91;101972.78;5034978;28;20487;-66
2022/07/05 11:32:15;;;;;;;2.25;0.98;;;;;;;36.66;23.59;101965.63;5035055;28;20025;-66
2022/07/05 11:34:41;;;;;;;2.58;0.95;;;;;;;37.05;23.22;101972.44;5018398;28;20026;-66